createdAt,value
2022-12-03T00:01:41.580Z,0.29
2022-12-03T00:04:11.191Z,0.28
2022-12-03T00:06:40.959Z,0.30
2022-12-03T00:09:10.653Z,0.31
2022-12-03T00:11:40.304Z,0.28
2022-12-03T00:14:12.524Z,0.25
2022-12-03T00:16:42.114Z,0.25
2022-12-03T00:19:11.727Z,0.22
2022-12-03T00:21:41.390Z,0.27
2022-12-03T00:24:11.748Z,0.25
2022-12-03T00:26:41.385Z,0.26
2022-12-03T00:29:13.924Z,0.26
2022-12-03T00:31:45.687Z,0.28
2022-12-03T00:34:15.456Z,0.24
2022-12-03T00:36:45.012Z,0.21
2022-12-03T00:39:14.583Z,0.26
2022-12-03T00:41:44.220Z,0.26
2022-12-03T00:44:16.611Z,0.25
2022-12-03T00:46:46.308Z,0.27
2022-12-03T00:49:16.242Z,0.26
2022-12-03T00:51:45.963Z,0.21
2022-12-03T00:54:15.811Z,0.22
2022-12-03T00:56:45.456Z,0.17
2022-12-03T00:59:17.779Z,0.10
2022-12-03T01:01:47.532Z,0.18
2022-12-03T01:04:17.354Z,0.19
2022-12-03T01:06:47.082Z,0.18
2022-12-03T01:09:16.705Z,0.16
2022-12-03T01:11:46.380Z,0.20
2022-12-03T01:14:20.577Z,0.15
2022-12-03T01:16:50.665Z,0.18
2022-12-03T01:19:20.854Z,0.14
2022-12-03T01:21:52.950Z,0.10
2022-12-03T01:24:23.027Z,0.12
2022-12-03T01:26:52.709Z,0.12
2022-12-03T01:29:25.123Z,0.19
2022-12-03T01:32:07.124Z,0.15
2022-12-03T01:34:36.815Z,0.22
2022-12-03T01:37:06.551Z,0.19
2022-12-03T01:39:36.146Z,0.16
2022-12-03T01:42:06.747Z,0.14
2022-12-03T01:44:42.194Z,0.18
2022-12-03T01:47:16.636Z,0.19
2022-12-03T01:49:49.465Z,0.19
2022-12-03T01:52:23.587Z,0.18
2022-12-03T01:54:56.541Z,0.20
2022-12-03T01:57:29.706Z,0.14
2022-12-03T02:00:03.393Z,0.11
2022-12-03T02:02:35.025Z,0.08
2022-12-03T02:05:09.734Z,0.11
2022-12-03T02:07:39.423Z,0.10
2022-12-03T02:10:10.155Z,0.09
2022-12-03T02:12:43.972Z,0.10
2022-12-03T02:15:16.540Z,0.11
2022-12-03T02:17:46.877Z,0.07
2022-12-03T02:20:17.150Z,0.04
2022-12-03T02:22:56.234Z,-0.03
2022-12-03T02:25:32.164Z,0.05
2022-12-03T02:28:02.603Z,0.04
2022-12-03T02:30:33.840Z,0.03
2022-12-03T02:33:04.414Z,0.09
2022-12-03T02:35:37.676Z,0.06
2022-12-03T02:38:14.577Z,0.00
2022-12-03T02:40:48.727Z,-0.01
2022-12-03T02:43:18.142Z,0.04
2022-12-03T02:45:50.900Z,-0.03
2022-12-03T02:48:25.093Z,0.03
2022-12-03T02:50:57.798Z,-0.03
2022-12-03T02:53:30.920Z,-0.06
2022-12-03T02:56:05.067Z,0.00
2022-12-03T02:58:35.780Z,-0.01
2022-12-03T03:01:06.688Z,-0.05
2022-12-03T03:03:36.851Z,-0.02
2022-12-03T03:06:09.198Z,-0.07
2022-12-03T03:08:41.043Z,-0.05
2022-12-03T03:11:13.892Z,-0.09
2022-12-03T03:13:43.725Z,-0.10
2022-12-03T03:16:13.327Z,-0.09
2022-12-03T03:18:43.416Z,-0.14
2022-12-03T03:21:13.211Z,-0.13
2022-12-03T03:23:42.811Z,-0.08
2022-12-03T03:26:16.823Z,-0.12
2022-12-03T03:28:50.004Z,-0.18
2022-12-03T03:31:24.270Z,-0.16
2022-12-03T03:33:54.598Z,-0.15
2022-12-03T03:36:25.751Z,-0.17
2022-12-03T03:38:55.732Z,-0.21
2022-12-03T03:41:29.643Z,-0.14
2022-12-03T03:43:59.787Z,-0.21
2022-12-03T03:46:33.501Z,-0.17
2022-12-03T03:49:04.048Z,-0.37
2022-12-03T03:51:34.638Z,-0.30
2022-12-03T03:54:06.923Z,-0.32
2022-12-03T03:56:39.727Z,-0.35
2022-12-03T03:59:09.432Z,-0.31
2022-12-03T04:01:39.701Z,-0.33
2022-12-03T04:04:14.258Z,-0.30
2022-12-03T04:06:43.854Z,-0.29
2022-12-03T04:09:13.465Z,-0.27
2022-12-03T04:11:58.167Z,-0.23
2022-12-03T04:14:28.015Z,-0.22
2022-12-03T04:16:57.725Z,-0.27
2022-12-03T04:19:27.485Z,-0.30
2022-12-03T04:22:09.507Z,-0.42
2022-12-03T04:24:39.252Z,-0.38
2022-12-03T04:27:24.248Z,-0.28
2022-12-03T04:29:53.850Z,-0.30
2022-12-03T04:32:35.903Z,-0.31
2022-12-03T04:35:18.160Z,-0.33
2022-12-03T04:37:47.944Z,-0.27
2022-12-03T04:40:30.000Z,-0.28
2022-12-03T04:43:02.322Z,-0.34
2022-12-03T04:45:32.172Z,-0.22
2022-12-03T04:48:01.935Z,-0.28
2022-12-03T04:50:31.606Z,-0.25
2022-12-03T04:53:01.253Z,-0.24
2022-12-03T04:55:30.911Z,-0.23
2022-12-03T04:58:03.130Z,-0.18
2022-12-03T05:00:33.152Z,-0.25
2022-12-03T05:03:02.897Z,-0.27
2022-12-03T05:05:32.643Z,-0.21
2022-12-03T05:08:02.344Z,-0.26
2022-12-03T05:10:31.938Z,-0.20
2022-12-03T05:13:04.158Z,-0.23
2022-12-03T05:15:33.830Z,-0.23
2022-12-03T05:18:03.502Z,-0.22
2022-12-03T05:20:51.440Z,-0.22
2022-12-03T05:23:23.197Z,-0.23
2022-12-03T05:25:52.961Z,-0.28
2022-12-03T05:28:25.294Z,-0.30
2022-12-03T05:30:55.058Z,-0.32
2022-12-03T05:33:24.613Z,-0.33
2022-12-03T05:35:54.287Z,-0.30
2022-12-03T05:38:23.924Z,-0.30
2022-12-03T05:40:53.710Z,-0.26
2022-12-03T05:43:23.504Z,-0.30
2022-12-03T05:45:53.200Z,-0.33
2022-12-03T05:48:22.766Z,-0.25
2022-12-03T05:50:52.344Z,-0.28
2022-12-03T05:53:21.928Z,-0.32
2022-12-03T05:55:51.527Z,-0.29
2022-12-03T05:58:21.202Z,-0.33
2022-12-03T06:00:53.428Z,-0.29
2022-12-03T06:03:23.274Z,-0.33
2022-12-03T06:05:53.074Z,-0.29
2022-12-03T06:08:22.647Z,-0.28
2022-12-03T06:10:52.320Z,-0.34
2022-12-03T06:13:21.993Z,-0.32
2022-12-03T06:15:54.269Z,-0.35
2022-12-03T06:18:23.954Z,-0.35
2022-12-03T06:20:53.599Z,-0.39
2022-12-03T06:23:23.203Z,-0.29
2022-12-03T06:25:52.870Z,-0.47
2022-12-03T06:28:22.499Z,-0.37
2022-12-03T06:30:54.895Z,-0.39
2022-12-03T06:33:24.574Z,-0.39
2022-12-03T06:35:54.445Z,-0.38
2022-12-03T06:38:24.187Z,-0.41
2022-12-03T06:40:53.768Z,-0.33
2022-12-03T06:43:23.356Z,-0.35
2022-12-03T06:45:55.538Z,-0.34
2022-12-03T06:48:25.100Z,-0.33
2022-12-03T06:50:54.687Z,-0.40
2022-12-03T06:53:24.328Z,-0.30
2022-12-03T06:55:53.859Z,-0.38
2022-12-03T06:58:23.448Z,-0.43
2022-12-03T07:00:55.696Z,-0.38
2022-12-03T07:03:25.314Z,-0.40
2022-12-03T07:05:54.934Z,-0.45
2022-12-03T07:08:24.629Z,-0.45
2022-12-03T07:10:54.199Z,-0.44
2022-12-03T07:13:23.794Z,-0.45
2022-12-03T07:15:56.107Z,-0.45
2022-12-03T07:18:25.830Z,-0.41
2022-12-03T07:20:55.481Z,-0.48
2022-12-03T07:23:25.058Z,-0.53
2022-12-03T07:25:54.680Z,-0.53
2022-12-03T07:28:24.320Z,-0.61
2022-12-03T07:30:56.646Z,-0.62
2022-12-03T07:33:26.321Z,-0.53
2022-12-03T07:35:56.172Z,-0.54
2022-12-03T07:38:25.883Z,-0.53
2022-12-03T07:40:55.431Z,-0.56
2022-12-03T07:43:25.043Z,-0.53
2022-12-03T07:45:57.244Z,-0.62
2022-12-03T07:48:26.941Z,-0.67
2022-12-03T07:50:56.571Z,-0.73
2022-12-03T07:53:26.313Z,-0.63
2022-12-03T07:55:55.924Z,-0.69
2022-12-03T07:58:25.610Z,-0.75
2022-12-03T08:00:58.101Z,-0.60
2022-12-03T08:03:28.025Z,-0.59
2022-12-03T08:05:57.595Z,-0.69
2022-12-03T08:08:27.206Z,-0.61
2022-12-03T08:10:56.897Z,-0.59
2022-12-03T08:13:26.517Z,-0.53
2022-12-03T08:15:59.013Z,-0.58
2022-12-03T08:18:29.849Z,-0.52
2022-12-03T08:20:59.649Z,-0.57
2022-12-03T08:23:29.338Z,-0.52
2022-12-03T08:26:02.178Z,-0.62
2022-12-03T08:28:32.311Z,-0.66
2022-12-03T08:31:18.712Z,-0.58
2022-12-03T08:33:50.358Z,-0.68
2022-12-03T08:36:24.717Z,-0.61
2022-12-03T08:38:57.545Z,-0.63
2022-12-03T08:41:39.453Z,-0.60
2022-12-03T08:44:23.991Z,-0.55
2022-12-03T08:47:04.700Z,-0.59
2022-12-03T08:49:34.634Z,-0.63
2022-12-03T08:52:14.092Z,-0.59
2022-12-03T08:54:44.859Z,-0.63
2022-12-03T08:57:27.916Z,-0.61
2022-12-03T09:00:01.990Z,-0.53
2022-12-03T09:02:36.968Z,-0.58
2022-12-03T09:05:18.891Z,-0.50
2022-12-03T09:07:49.007Z,-0.51
2022-12-03T09:10:18.925Z,-0.51
2022-12-03T09:12:48.555Z,-0.46
2022-12-03T09:15:18.583Z,-0.50
2022-12-03T09:17:51.151Z,-0.44
2022-12-03T09:20:20.827Z,-0.55
2022-12-03T09:22:50.385Z,-0.48
2022-12-03T09:25:20.121Z,-0.47
2022-12-03T09:27:49.882Z,-0.46
2022-12-03T09:30:20.033Z,-0.40
2022-12-03T09:32:52.321Z,-0.43
2022-12-03T09:35:22.143Z,-0.39
2022-12-03T09:37:51.755Z,-0.35
2022-12-03T09:40:22.116Z,-0.28
2022-12-03T09:42:52.506Z,-0.35
2022-12-03T09:45:24.309Z,-0.27
2022-12-03T09:47:57.823Z,-0.18
2022-12-03T09:50:29.403Z,-0.13
2022-12-03T09:53:03.110Z,-0.09
2022-12-03T09:55:33.616Z,0.08
2022-12-03T09:58:03.467Z,0.12
2022-12-03T10:00:34.808Z,0.14
2022-12-03T10:03:10.049Z,0.14
2022-12-03T10:05:43.732Z,0.21
2022-12-03T10:08:21.702Z,0.24
2022-12-03T10:10:56.636Z,0.34
2022-12-03T10:13:30.184Z,0.40
2022-12-03T10:16:02.799Z,0.48
2022-12-03T10:18:41.516Z,0.53
2022-12-03T10:21:19.876Z,0.64
2022-12-03T10:23:55.168Z,0.54
2022-12-03T10:26:42.078Z,0.43
2022-12-03T10:29:16.056Z,0.41
2022-12-03T10:31:45.829Z,0.20
2022-12-03T10:34:27.187Z,0.23
2022-12-03T10:37:14.198Z,0.19
2022-12-03T10:39:59.247Z,0.17
2022-12-03T10:42:31.146Z,0.19
2022-12-03T10:45:15.416Z,0.19
2022-12-03T10:47:45.719Z,0.10
2022-12-03T10:50:22.456Z,0.11
2022-12-03T10:52:52.014Z,0.23
2022-12-03T10:55:21.809Z,0.30
2022-12-03T10:57:51.501Z,0.33
2022-12-03T11:00:22.835Z,0.16
2022-12-03T11:02:56.643Z,0.23
2022-12-03T11:05:30.918Z,0.28
2022-12-03T11:08:00.671Z,0.27
2022-12-03T11:10:30.405Z,0.30
2022-12-03T11:13:30.052Z,0.29
2022-12-03T11:16:00.393Z,0.19
2022-12-03T11:18:59.990Z,0.19
2022-12-03T11:21:32.948Z,0.14
2022-12-03T11:24:24.779Z,0.27
2022-12-03T11:27:20.861Z,0.33
2022-12-03T11:30:05.458Z,0.26
2022-12-03T11:33:10.860Z,0.20
2022-12-03T11:36:16.567Z,0.21
2022-12-03T11:38:57.732Z,0.33
2022-12-03T11:41:32.724Z,0.34
2022-12-03T11:44:22.144Z,0.32
2022-12-03T11:46:52.331Z,0.35
2022-12-03T11:49:31.608Z,0.44
2022-12-03T11:52:03.451Z,0.52
2022-12-03T11:54:38.481Z,0.41
2022-12-03T11:57:35.786Z,0.61
2022-12-03T12:00:26.900Z,0.48
2022-12-03T12:02:59.351Z,0.40
2022-12-03T12:05:32.563Z,0.40
2022-12-03T12:08:03.822Z,0.32
2022-12-03T12:10:50.549Z,0.24
2022-12-03T12:13:57.078Z,0.29
2022-12-03T12:16:50.198Z,0.34
2022-12-03T12:19:35.127Z,0.29
2022-12-03T12:22:32.193Z,0.24
2022-12-03T12:25:03.498Z,0.26
2022-12-03T12:27:39.505Z,0.24
2022-12-03T12:30:12.821Z,0.18
2022-12-03T12:32:48.048Z,0.22
2022-12-03T12:35:20.970Z,0.16
2022-12-03T12:37:59.193Z,0.14
2022-12-03T12:40:32.102Z,0.15
2022-12-03T12:43:13.261Z,0.15
2022-12-03T12:45:47.252Z,0.16
2022-12-03T12:48:25.229Z,0.20
2022-12-03T12:51:02.839Z,0.20
2022-12-03T12:53:34.522Z,0.11
2022-12-03T12:56:14.937Z,0.17
2022-12-03T12:58:47.063Z,0.17
2022-12-03T13:01:23.188Z,0.16
2022-12-03T13:03:54.790Z,0.17
2022-12-03T13:06:28.799Z,0.16
2022-12-03T13:09:01.153Z,0.15
2022-12-03T13:11:41.404Z,0.10
2022-12-03T13:14:19.730Z,0.11
2022-12-03T13:16:50.984Z,0.15
2022-12-03T13:19:26.175Z,0.11
2022-12-03T13:21:57.613Z,0.07
2022-12-03T13:24:32.948Z,0.03
2022-12-03T13:27:05.209Z,0.12
2022-12-03T13:29:37.548Z,0.08
2022-12-03T13:32:14.295Z,0.16
2022-12-03T13:34:44.918Z,0.12
2022-12-03T13:37:18.005Z,0.08
2022-12-03T13:39:50.476Z,0.06
2022-12-03T13:42:36.044Z,0.07
2022-12-03T13:45:25.323Z,0.05
2022-12-03T13:47:58.407Z,0.00
2022-12-03T13:50:34.549Z,0.03
2022-12-03T13:53:04.607Z,0.05
2022-12-03T13:55:34.515Z,0.03
2022-12-03T13:58:04.043Z,0.02
2022-12-03T14:00:36.302Z,0.06
2022-12-03T14:03:05.986Z,0.08
2022-12-03T14:05:35.649Z,0.08
2022-12-03T14:08:07.743Z,0.10
2022-12-03T14:10:37.470Z,-0.01
2022-12-03T14:13:06.933Z,0.00
2022-12-03T14:15:39.164Z,0.00
2022-12-03T14:18:08.861Z,0.02
2022-12-03T14:20:38.482Z,0.05
2022-12-03T14:23:07.979Z,0.01
2022-12-03T14:25:37.624Z,0.00
2022-12-03T14:28:08.716Z,0.03
2022-12-03T14:30:41.064Z,-0.05
2022-12-03T14:33:10.650Z,0.03
2022-12-03T14:35:40.221Z,0.05
2022-12-03T14:38:09.757Z,-0.10
2022-12-03T14:40:39.327Z,-0.07
2022-12-03T14:43:08.912Z,-0.03
2022-12-03T14:45:41.073Z,-0.06
2022-12-03T14:48:10.834Z,-0.09
2022-12-03T14:50:40.312Z,-0.10
2022-12-03T14:53:09.746Z,-0.12
2022-12-03T14:55:39.278Z,-0.06
2022-12-03T14:58:08.763Z,-0.09
2022-12-03T15:00:40.966Z,-0.11
2022-12-03T15:03:10.586Z,-0.15
2022-12-03T15:05:40.104Z,-0.17
2022-12-03T15:08:09.833Z,-0.18
2022-12-03T15:10:39.411Z,-0.15
2022-12-03T15:13:08.881Z,-0.21
2022-12-03T15:15:41.119Z,-0.17
2022-12-03T15:18:10.632Z,-0.17
2022-12-03T15:20:40.422Z,-0.22
2022-12-03T15:23:14.329Z,-0.14
2022-12-03T15:25:44.590Z,-0.21
2022-12-03T15:28:14.186Z,-0.13
2022-12-03T15:30:46.316Z,-0.08
2022-12-03T15:33:16.130Z,-0.15
2022-12-03T15:35:45.690Z,-0.17
2022-12-03T15:38:15.576Z,-0.13
2022-12-03T15:40:45.137Z,-0.17
2022-12-03T15:43:14.960Z,-0.17
2022-12-03T15:45:47.230Z,-0.16
2022-12-03T15:48:16.774Z,-0.24
2022-12-03T15:51:10.615Z,-0.25
2022-12-03T15:53:40.360Z,-0.27
2022-12-03T15:56:11.994Z,-0.28
2022-12-03T15:58:41.442Z,-0.22
2022-12-03T16:01:14.296Z,-0.16
2022-12-03T16:03:44.066Z,-0.21
2022-12-03T16:06:18.180Z,-0.31
2022-12-03T16:08:48.324Z,-0.17
2022-12-03T16:11:17.842Z,-0.18
2022-12-03T16:13:47.442Z,-0.20
2022-12-03T16:16:19.685Z,-0.23
2022-12-03T16:18:49.275Z,-0.28
2022-12-03T16:21:23.367Z,-0.34
2022-12-03T16:23:55.943Z,-0.30
2022-12-03T16:26:25.886Z,-0.25
2022-12-03T16:28:55.456Z,-0.24
2022-12-03T16:31:27.847Z,-0.24
2022-12-03T16:33:57.494Z,-0.28
2022-12-03T16:36:27.047Z,-0.32
2022-12-03T16:38:56.698Z,-0.29
2022-12-03T16:41:26.345Z,-0.33
2022-12-03T16:43:55.912Z,-0.26
2022-12-03T16:46:28.516Z,-0.37
2022-12-03T16:48:59.619Z,-0.26
2022-12-03T16:51:30.740Z,-0.28
2022-12-03T16:54:00.286Z,-0.28
2022-12-03T16:56:29.809Z,-0.29
2022-12-03T16:58:59.451Z,-0.34
2022-12-03T17:01:32.231Z,-0.29
2022-12-03T17:04:01.925Z,-0.24
2022-12-03T17:06:31.499Z,-0.20
2022-12-03T17:09:01.023Z,-0.27
2022-12-03T17:11:30.660Z,-0.35
2022-12-03T17:14:00.248Z,-0.33
2022-12-03T17:16:32.647Z,-0.31
2022-12-03T17:19:02.174Z,-0.31
2022-12-03T17:21:34.852Z,-0.36
2022-12-03T17:24:04.771Z,-0.32
2022-12-03T17:26:34.260Z,-0.30
2022-12-03T17:29:03.753Z,-0.33
2022-12-03T17:31:41.704Z,-0.31
2022-12-03T17:34:11.928Z,-0.29
2022-12-03T17:36:41.466Z,-0.31
2022-12-03T17:39:11.161Z,-0.25
2022-12-03T17:41:40.796Z,-0.30
2022-12-03T17:44:12.932Z,-0.30
2022-12-03T17:46:47.426Z,-0.28
2022-12-03T17:49:16.936Z,-0.25
2022-12-03T17:51:46.422Z,-0.22
2022-12-03T17:54:16.015Z,-0.21
2022-12-03T17:56:45.640Z,-0.28
2022-12-03T17:59:16.059Z,-0.24
2022-12-03T18:01:48.219Z,-0.17
2022-12-03T18:04:17.910Z,-0.23
2022-12-03T18:06:47.454Z,-0.17
2022-12-03T18:09:16.947Z,-0.17
2022-12-03T18:11:46.733Z,-0.26
2022-12-03T18:14:16.355Z,-0.16
2022-12-03T18:16:48.496Z,-0.19
2022-12-03T18:19:18.022Z,-0.20
2022-12-03T18:21:47.587Z,-0.22
2022-12-03T18:24:17.350Z,-0.18
2022-12-03T18:26:46.983Z,-0.18
2022-12-03T18:29:16.680Z,-0.22
2022-12-03T18:31:48.879Z,-0.19
2022-12-03T18:34:18.455Z,-0.23
2022-12-03T18:36:48.685Z,-0.23
2022-12-03T18:39:26.477Z,-0.22
2022-12-03T18:41:56.700Z,-0.25
2022-12-03T18:44:26.280Z,-0.20
2022-12-03T18:46:59.230Z,-0.22
2022-12-03T18:49:28.820Z,-0.24
2022-12-03T18:51:59.696Z,-0.26
2022-12-03T18:54:29.489Z,-0.30
2022-12-03T18:56:59.180Z,-0.16
2022-12-03T18:59:28.699Z,-0.19
2022-12-03T19:02:01.374Z,-0.21
2022-12-03T19:04:31.131Z,-0.25
2022-12-03T19:07:00.654Z,-0.26
2022-12-03T19:09:30.593Z,-0.23
2022-12-03T19:12:00.181Z,-0.24
2022-12-03T19:14:29.701Z,-0.25
2022-12-03T19:17:01.934Z,-0.24
2022-12-03T19:19:32.361Z,-0.24
2022-12-03T19:22:02.154Z,-0.24
2022-12-03T19:24:31.729Z,-0.21
2022-12-03T19:27:01.223Z,-0.26
2022-12-03T19:29:30.792Z,-0.27
2022-12-03T19:32:03.356Z,-0.24
2022-12-03T19:34:33.340Z,-0.21
2022-12-03T19:37:03.127Z,-0.25
2022-12-03T19:39:33.359Z,-0.22
2022-12-03T19:42:02.983Z,-0.21
2022-12-03T19:44:33.316Z,-0.26
2022-12-03T19:47:05.614Z,-0.18
2022-12-03T19:49:35.495Z,-0.21
2022-12-03T19:52:05.006Z,-0.19
2022-12-03T19:54:34.562Z,-0.20
2022-12-03T19:57:04.142Z,-0.23
2022-12-03T19:59:33.824Z,-0.28
2022-12-03T20:02:06.089Z,-0.19
2022-12-03T20:04:35.769Z,-0.28
2022-12-03T20:07:05.294Z,-0.22
2022-12-03T20:09:34.965Z,-0.24
2022-12-03T20:12:04.504Z,-0.28
2022-12-03T20:14:34.059Z,-0.25
2022-12-03T20:17:06.431Z,-0.30
2022-12-03T20:19:36.055Z,-0.27
2022-12-03T20:22:05.624Z,-0.27
2022-12-03T20:24:35.196Z,-0.32
2022-12-03T20:27:04.803Z,-0.30
2022-12-03T20:29:34.288Z,-0.30
2022-12-03T20:32:07.134Z,-0.28
2022-12-03T20:34:37.083Z,-0.27
2022-12-03T20:37:06.643Z,-0.27
2022-12-03T20:39:36.315Z,-0.35
2022-12-03T20:42:06.015Z,-0.21
2022-12-03T20:44:35.490Z,-0.25
2022-12-03T20:47:07.997Z,-0.23
2022-12-03T20:49:39.097Z,-0.27
2022-12-03T20:52:08.799Z,-0.29
2022-12-03T20:54:38.351Z,-0.27
2022-12-03T20:57:07.995Z,-0.27
2022-12-03T20:59:37.550Z,-0.23
2022-12-03T21:02:09.701Z,-0.21
2022-12-03T21:04:39.404Z,-0.24
2022-12-03T21:07:08.894Z,-0.25
2022-12-03T21:09:38.523Z,-0.26
2022-12-03T21:12:08.316Z,-0.25
2022-12-03T21:14:38.351Z,-0.27
2022-12-03T21:17:10.566Z,-0.24
2022-12-03T21:19:40.529Z,-0.33
2022-12-03T21:22:10.563Z,-0.26
2022-12-03T21:24:42.812Z,-0.28
2022-12-03T21:27:16.939Z,-0.31
2022-12-03T21:29:49.533Z,-0.35
2022-12-03T21:32:21.716Z,-0.31
2022-12-03T21:34:51.286Z,-0.32
2022-12-03T21:37:20.843Z,-0.31
2022-12-03T21:39:50.459Z,-0.29
2022-12-03T21:42:35.734Z,-0.25
2022-12-03T21:45:07.473Z,-0.27
2022-12-03T21:47:39.778Z,-0.27
2022-12-03T21:50:12.075Z,-0.28
2022-12-03T21:52:41.597Z,-0.27
2022-12-03T21:55:12.564Z,-0.26
2022-12-03T21:57:42.117Z,-0.25
2022-12-03T22:00:13.023Z,-0.32
2022-12-03T22:02:45.422Z,-0.32
2022-12-03T22:05:15.234Z,-0.29
2022-12-03T22:07:45.028Z,-0.28
2022-12-03T22:10:15.626Z,-0.30
2022-12-03T22:12:45.518Z,-0.25
2022-12-03T22:15:19.210Z,-0.26
2022-12-03T22:17:51.831Z,-0.27
2022-12-03T22:20:21.836Z,-0.25
2022-12-03T22:22:51.506Z,-0.39
2022-12-03T22:25:21.170Z,-0.35
2022-12-03T22:27:50.719Z,-0.27
2022-12-03T22:30:20.347Z,-0.29
2022-12-03T22:32:52.568Z,-0.29
2022-12-03T22:35:22.101Z,-0.29
2022-12-03T22:37:51.669Z,-0.29
2022-12-03T22:40:21.438Z,-0.27
2022-12-03T22:42:51.271Z,-0.31
2022-12-03T22:45:20.891Z,-0.30
2022-12-03T22:47:53.044Z,-0.32
2022-12-03T22:50:22.577Z,-0.35
2022-12-03T22:52:52.110Z,-0.35
2022-12-03T22:55:21.758Z,-0.36
2022-12-03T22:57:51.559Z,-0.30
2022-12-03T23:00:31.828Z,-0.29
2022-12-03T23:03:04.565Z,-0.29
2022-12-03T23:05:37.056Z,-0.26
2022-12-03T23:08:06.956Z,-0.36
2022-12-03T23:10:37.794Z,-0.31
2022-12-03T23:13:08.565Z,-0.26
2022-12-03T23:15:38.798Z,-0.31
2022-12-03T23:18:11.190Z,-0.31
2022-12-03T23:20:45.117Z,-0.26
2022-12-03T23:23:15.437Z,-0.28
2022-12-03T23:25:45.305Z,-0.25
2022-12-03T23:28:15.251Z,-0.28
2022-12-03T23:30:44.811Z,-0.24
2022-12-03T23:33:17.036Z,-0.24
2022-12-03T23:35:46.637Z,-0.22
2022-12-03T23:38:16.353Z,-0.21
2022-12-03T23:40:48.643Z,-0.19
2022-12-03T23:43:18.552Z,-0.16
2022-12-03T23:45:48.236Z,-0.18
2022-12-03T23:48:20.336Z,-0.18
2022-12-03T23:50:50.089Z,-0.24
2022-12-03T23:53:19.644Z,-0.23
2022-12-03T23:55:49.223Z,-0.17
2022-12-03T23:58:19.099Z,-0.21
